createdAt,value
2022-12-25T00:01:24.171Z,0.19
2022-12-25T00:03:52.549Z,0.19
2022-12-25T00:06:20.498Z,0.10
2022-12-25T00:08:47.596Z,0.04
2022-12-25T00:11:22.658Z,-0.19
2022-12-25T00:13:49.982Z,-0.09
2022-12-25T00:16:20.213Z,-0.16
2022-12-25T00:18:51.708Z,-0.23
2022-12-25T00:21:20.397Z,-0.29
2022-12-25T00:23:47.765Z,-0.26
2022-12-25T00:26:17.411Z,-0.30
2022-12-25T00:28:44.987Z,-0.40
2022-12-25T00:31:15.059Z,-0.48
2022-12-25T00:33:44.040Z,-0.47
2022-12-25T00:36:12.901Z,-0.50
2022-12-25T00:38:40.935Z,-0.56
2022-12-25T00:41:12.729Z,-0.60
2022-12-25T00:43:42.194Z,-0.64
2022-12-25T00:46:11.250Z,-0.66
2022-12-25T00:48:41.726Z,-0.76
2022-12-25T00:51:11.900Z,-0.70
2022-12-25T00:53:39.458Z,-0.75
2022-12-25T00:56:07.847Z,-0.71
2022-12-25T00:58:35.803Z,-0.63
2022-12-25T01:01:03.658Z,-0.66
2022-12-25T01:03:31.115Z,-0.65
2022-12-25T01:06:01.355Z,-0.65
2022-12-25T01:08:31.153Z,-0.71
2022-12-25T01:11:04.667Z,-0.78
2022-12-25T01:13:35.148Z,-0.69
2022-12-25T01:16:09.845Z,-0.61
2022-12-25T01:18:37.074Z,-0.63
2022-12-25T01:21:11.904Z,-0.65
2022-12-25T01:23:39.569Z,-0.61
2022-12-25T01:26:07.775Z,-0.58
2022-12-25T01:28:35.323Z,-0.60
2022-12-25T01:31:02.789Z,-0.62
2022-12-25T01:33:30.199Z,-0.53
2022-12-25T01:35:58.883Z,-0.52
2022-12-25T01:38:26.147Z,-0.46
2022-12-25T01:40:53.496Z,-0.38
2022-12-25T01:43:29.380Z,-0.38
2022-12-25T01:45:57.974Z,-0.36
2022-12-25T01:48:37.359Z,-0.37
2022-12-25T01:51:11.831Z,-0.24
2022-12-25T01:53:38.942Z,-0.24
2022-12-25T01:56:08.623Z,-0.23
2022-12-25T01:58:36.500Z,-0.24
2022-12-25T02:01:03.680Z,-0.28
2022-12-25T02:03:31.080Z,-0.26
2022-12-25T02:05:59.655Z,-0.14
2022-12-25T02:08:27.393Z,-0.20
2022-12-25T02:10:54.491Z,-0.30
2022-12-25T02:13:21.674Z,-0.17
2022-12-25T02:16:00.338Z,0.10
2022-12-25T02:18:48.319Z,-0.12
2022-12-25T02:21:38.683Z,-0.29
2022-12-25T02:24:24.023Z,-0.18
2022-12-25T02:26:58.441Z,0.07
2022-12-25T02:29:49.741Z,0.14
2022-12-25T02:32:16.844Z,0.15
2022-12-25T02:34:43.917Z,0.19
2022-12-25T02:37:27.583Z,0.14
2022-12-25T02:40:00.616Z,0.13
2022-12-25T02:43:15.092Z,0.12
2022-12-25T02:46:14.694Z,0.05
2022-12-25T02:49:04.259Z,0.06
2022-12-25T02:51:52.861Z,0.16
2022-12-25T02:54:45.455Z,0.15
2022-12-25T02:57:35.093Z,0.08
2022-12-25T03:00:22.341Z,0.01
2022-12-25T03:03:09.907Z,-0.13
2022-12-25T03:05:58.989Z,-0.20
2022-12-25T03:08:35.902Z,-0.18
2022-12-25T03:11:27.840Z,-0.20
2022-12-25T03:14:23.886Z,-0.15
2022-12-25T03:16:54.204Z,-0.16
2022-12-25T03:19:52.019Z,0.01
2022-12-25T03:22:46.204Z,0.22
2022-12-25T03:25:32.120Z,0.10
2022-12-25T03:27:59.758Z,0.13
2022-12-25T03:31:10.548Z,0.17
2022-12-25T03:34:25.880Z,0.02
2022-12-25T03:37:05.655Z,0.30
2022-12-25T03:39:55.206Z,0.33
2022-12-25T03:42:42.347Z,0.33
2022-12-25T03:45:37.927Z,0.23
2022-12-25T03:48:13.216Z,0.19
2022-12-25T03:51:12.187Z,0.27
2022-12-25T03:54:05.638Z,0.43
2022-12-25T03:56:52.556Z,0.18
2022-12-25T03:59:40.078Z,0.10
2022-12-25T04:02:25.985Z,0.13
2022-12-25T04:05:11.629Z,0.27
2022-12-25T04:07:57.395Z,0.45
2022-12-25T04:10:43.858Z,0.04
2022-12-25T04:13:29.340Z,-0.10
2022-12-25T04:16:16.221Z,-0.10
2022-12-25T04:19:02.327Z,0.01
2022-12-25T04:21:47.841Z,0.25
2022-12-25T04:24:33.446Z,0.22
2022-12-25T04:27:19.420Z,0.22
2022-12-25T04:30:04.960Z,0.01
2022-12-25T04:32:50.591Z,-0.12
2022-12-25T04:35:36.412Z,-0.18
2022-12-25T04:38:03.613Z,-0.12
2022-12-25T04:40:30.705Z,-0.27
2022-12-25T04:42:57.841Z,-0.18
2022-12-25T04:45:25.049Z,0.07
2022-12-25T04:47:52.304Z,0.22
2022-12-25T04:50:19.452Z,0.12
2022-12-25T04:52:46.907Z,0.09
2022-12-25T04:55:14.163Z,0.26
2022-12-25T04:57:41.293Z,0.41
2022-12-25T05:00:09.538Z,0.03
2022-12-25T05:02:36.868Z,0.22
2022-12-25T05:05:04.606Z,0.03
2022-12-25T05:07:33.074Z,-0.05
2022-12-25T05:10:00.226Z,0.03
2022-12-25T05:12:30.967Z,-0.02
2022-12-25T05:15:01.642Z,0.10
2022-12-25T05:17:29.064Z,0.36
2022-12-25T05:19:56.407Z,0.35
2022-12-25T05:22:24.248Z,0.18
2022-12-25T05:24:51.356Z,-0.13
2022-12-25T05:27:18.431Z,-0.35
2022-12-25T05:29:45.648Z,-0.29
2022-12-25T05:32:12.959Z,-0.43
2022-12-25T05:34:40.115Z,-0.43
2022-12-25T05:37:07.288Z,-0.46
2022-12-25T05:39:34.741Z,-0.33
2022-12-25T05:42:02.019Z,-0.39
2022-12-25T05:44:29.517Z,-0.62
2022-12-25T05:46:57.423Z,-0.62
2022-12-25T05:49:24.702Z,-0.50
2022-12-25T05:51:52.872Z,-0.44
2022-12-25T05:54:20.072Z,-0.74
2022-12-25T05:56:47.368Z,-0.75
2022-12-25T05:59:14.751Z,-0.60
2022-12-25T06:01:42.156Z,-0.57
2022-12-25T06:04:12.654Z,-0.53
2022-12-25T06:06:41.218Z,-0.52
2022-12-25T06:09:16.554Z,-0.81
2022-12-25T06:11:47.151Z,-1.02
2022-12-25T06:14:16.452Z,-1.00
2022-12-25T06:16:43.676Z,-1.15
2022-12-25T06:19:10.937Z,-1.08
2022-12-25T06:21:38.176Z,-1.21
2022-12-25T06:24:05.690Z,-1.16
2022-12-25T06:26:33.130Z,-1.22
2022-12-25T06:29:00.417Z,-1.32
2022-12-25T06:31:27.701Z,-1.32
2022-12-25T06:33:54.936Z,-1.41
2022-12-25T06:36:25.457Z,-1.44
2022-12-25T06:38:53.888Z,-1.29
2022-12-25T06:41:23.528Z,-1.32
2022-12-25T06:43:55.295Z,-1.35
2022-12-25T06:46:24.061Z,-1.04
2022-12-25T06:48:51.408Z,-0.96
2022-12-25T06:51:27.472Z,-0.84
2022-12-25T06:53:55.232Z,-0.89
2022-12-25T06:56:25.308Z,-0.65
2022-12-25T06:58:55.726Z,-0.71
2022-12-25T07:01:47.210Z,-0.59
2022-12-25T07:04:46.255Z,-0.42
2022-12-25T07:07:13.440Z,-0.31
2022-12-25T07:09:42.666Z,-0.17
2022-12-25T07:12:19.310Z,-0.35
2022-12-25T07:14:50.391Z,-0.58
2022-12-25T07:17:18.106Z,-0.52
2022-12-25T07:19:47.139Z,-0.54
2022-12-25T07:22:16.324Z,-0.39
2022-12-25T07:24:43.495Z,-0.42
2022-12-25T07:27:10.884Z,-0.35
2022-12-25T07:29:38.391Z,-0.22
2022-12-25T07:32:06.298Z,-0.38
2022-12-25T07:34:33.547Z,-0.41
2022-12-25T07:37:00.673Z,-0.35
2022-12-25T07:39:27.912Z,-0.36
2022-12-25T07:41:55.059Z,-0.28
2022-12-25T07:44:22.461Z,-0.05
2022-12-25T07:46:49.947Z,0.05
2022-12-25T07:49:17.266Z,-0.15
2022-12-25T07:51:44.501Z,0.12
2022-12-25T07:54:11.652Z,0.30
2022-12-25T07:56:38.846Z,0.42
2022-12-25T07:59:05.938Z,-0.00
2022-12-25T08:01:33.240Z,0.02
2022-12-25T08:04:02.943Z,0.40
2022-12-25T08:06:32.883Z,0.45
2022-12-25T08:09:07.079Z,0.58
2022-12-25T08:11:34.408Z,0.46
2022-12-25T08:14:01.740Z,0.42
2022-12-25T08:16:28.899Z,0.17
2022-12-25T08:18:56.147Z,-0.10
2022-12-25T08:21:23.609Z,-0.03
2022-12-25T08:23:50.855Z,-0.01
2022-12-25T08:26:21.301Z,-0.09
2022-12-25T08:28:49.486Z,0.07
2022-12-25T08:31:21.241Z,0.35
2022-12-25T08:33:50.171Z,0.61
2022-12-25T08:36:18.784Z,0.37
2022-12-25T08:38:46.845Z,0.17
2022-12-25T08:41:15.010Z,0.10
2022-12-25T08:43:42.380Z,0.07
2022-12-25T08:46:10.140Z,0.26
2022-12-25T08:48:38.250Z,0.19
2022-12-25T08:51:08.725Z,0.04
2022-12-25T08:53:35.948Z,0.23
2022-12-25T08:56:07.724Z,0.15
2022-12-25T08:58:34.963Z,-0.05
2022-12-25T09:01:02.978Z,-0.32
2022-12-25T09:03:32.538Z,-0.20
2022-12-25T09:06:08.683Z,-0.07
2022-12-25T09:08:38.811Z,-0.28
2022-12-25T09:11:11.800Z,-0.24
2022-12-25T09:13:39.752Z,-0.09
2022-12-25T09:16:09.187Z,-0.29
2022-12-25T09:18:36.552Z,-0.21
2022-12-25T09:21:06.371Z,-0.07
2022-12-25T09:23:34.618Z,-0.39
2022-12-25T09:26:03.327Z,-0.47
2022-12-25T09:28:30.964Z,-0.31
2022-12-25T09:30:58.785Z,-0.40
2022-12-25T09:33:26.518Z,-0.42
2022-12-25T09:36:02.384Z,-0.68
2022-12-25T09:38:30.068Z,-0.93
2022-12-25T09:41:14.422Z,-0.87
2022-12-25T09:43:50.283Z,-0.83
2022-12-25T09:46:21.936Z,-0.59
2022-12-25T09:49:01.856Z,-0.35
2022-12-25T09:51:31.345Z,-0.20
2022-12-25T09:54:04.903Z,-0.43
2022-12-25T09:56:33.697Z,-0.63
2022-12-25T09:59:00.958Z,-0.88
2022-12-25T10:01:33.759Z,-0.91
2022-12-25T10:04:40.760Z,-0.88
2022-12-25T10:07:36.946Z,-1.03
2022-12-25T10:10:27.583Z,-1.01
2022-12-25T10:13:21.928Z,-0.89
2022-12-25T10:15:52.703Z,-0.83
2022-12-25T10:18:35.216Z,-0.85
2022-12-25T10:23:47.123Z,-0.31
2022-12-25T10:26:21.159Z,-0.31
2022-12-25T10:31:26.634Z,-0.01
2022-12-25T10:33:56.137Z,-0.49
2022-12-25T10:36:30.501Z,-1.06
2022-12-25T10:39:00.287Z,-1.19
2022-12-25T10:42:05.157Z,-0.98
2022-12-25T10:44:36.118Z,-0.90
2022-12-25T10:47:07.123Z,-0.70
2022-12-25T10:49:41.063Z,-0.91
2022-12-25T10:52:26.237Z,-1.10
2022-12-25T10:54:57.084Z,-1.28
2022-12-25T10:57:30.890Z,-1.01
2022-12-25T11:00:02.835Z,-0.74
2022-12-25T11:02:41.385Z,-0.60
2022-12-25T11:05:24.056Z,-1.10
2022-12-25T11:07:57.457Z,-1.20
2022-12-25T11:10:29.576Z,-1.06
2022-12-25T11:13:01.176Z,-1.00
2022-12-25T11:15:44.889Z,-1.21
2022-12-25T11:18:31.624Z,-1.30
2022-12-25T11:21:32.892Z,-1.22
2022-12-25T11:24:23.543Z,-1.33
2022-12-25T11:26:56.528Z,-1.19
2022-12-25T11:29:30.199Z,-1.31
2022-12-25T11:32:03.943Z,-1.58
2022-12-25T11:34:44.624Z,-1.88
2022-12-25T11:37:40.990Z,-1.85
2022-12-25T11:40:51.536Z,-1.90
2022-12-25T11:43:36.033Z,-2.10
2022-12-25T11:46:17.097Z,-2.24
2022-12-25T11:52:42.006Z,-1.94
2022-12-25T11:55:25.695Z,-1.85
2022-12-25T11:58:01.726Z,-1.67
2022-12-25T12:00:34.068Z,-1.82
2022-12-25T12:03:12.268Z,-1.96
2022-12-25T12:05:51.339Z,-2.07
2022-12-25T12:08:21.834Z,-1.86
2022-12-25T12:11:19.029Z,-1.76
2022-12-25T12:17:32.244Z,-2.05
2022-12-25T12:20:30.657Z,-2.10
2022-12-25T12:23:03.689Z,-1.86
2022-12-25T12:25:41.700Z,-2.14
2022-12-25T12:28:22.839Z,-1.96
2022-12-25T12:31:06.699Z,-1.91
2022-12-25T12:33:51.119Z,-2.32
2022-12-25T12:36:34.631Z,-2.40
2022-12-25T12:39:06.999Z,-2.34
2022-12-25T12:41:53.252Z,-2.28
2022-12-25T12:44:27.053Z,-2.27
2022-12-25T12:47:00.367Z,-2.19
2022-12-25T12:49:35.780Z,-2.31
2022-12-25T12:52:33.102Z,-2.39
2022-12-25T12:55:06.115Z,-2.11
2022-12-25T12:57:40.809Z,-2.23
2022-12-25T13:00:20.386Z,-2.51
2022-12-25T13:03:18.169Z,-2.31
2022-12-25T13:05:52.088Z,-2.75
2022-12-25T13:10:12.503Z,-2.66
2022-12-25T13:12:45.763Z,-2.60
2022-12-25T13:15:16.940Z,-2.47
2022-12-25T13:17:49.285Z,-2.47
2022-12-25T13:21:03.874Z,-2.21
2022-12-25T13:23:36.423Z,-2.27
2022-12-25T13:26:19.673Z,-2.51
2022-12-25T13:28:50.046Z,-2.73
2022-12-25T13:31:31.848Z,-2.43
2022-12-25T13:34:06.370Z,-2.51
2022-12-25T13:36:41.440Z,-3.00
2022-12-25T13:39:24.734Z,-2.77
2022-12-25T13:42:13.477Z,-2.89
2022-12-25T13:44:53.157Z,-2.91
2022-12-25T13:47:39.137Z,-2.94
2022-12-25T13:50:35.772Z,-2.92
2022-12-25T13:53:26.949Z,-3.03
2022-12-25T13:56:20.736Z,-3.07
2022-12-25T13:58:50.149Z,-3.44
2022-12-25T14:01:19.931Z,-3.38
2022-12-25T14:06:37.298Z,-3.61
2022-12-25T14:09:09.549Z,-3.60
2022-12-25T14:12:00.539Z,-3.43
2022-12-25T14:14:34.258Z,-3.42
2022-12-25T14:17:08.146Z,-3.38
2022-12-25T14:19:43.412Z,-3.65
2022-12-25T14:22:24.140Z,-3.79
2022-12-25T14:24:55.809Z,-3.45
2022-12-25T14:27:28.991Z,-3.07
2022-12-25T14:30:01.974Z,-2.81
2022-12-25T14:32:41.934Z,-2.73
2022-12-25T14:35:18.217Z,-2.92
2022-12-25T14:37:55.931Z,-3.15
2022-12-25T14:40:29.149Z,-3.16
2022-12-25T14:43:01.687Z,-3.34
2022-12-25T14:45:39.722Z,-3.51
2022-12-25T14:48:25.245Z,-3.87
2022-12-25T14:50:58.955Z,-3.78
2022-12-25T14:54:09.471Z,-3.65
2022-12-25T14:56:38.823Z,-3.93
2022-12-25T14:59:31.695Z,-3.86
2022-12-25T15:02:01.496Z,-3.87
2022-12-25T15:04:30.230Z,-3.81
2022-12-25T15:07:01.658Z,-3.86
2022-12-25T15:09:30.287Z,-3.71
2022-12-25T15:11:57.864Z,-3.63
2022-12-25T15:14:27.073Z,-3.54
2022-12-25T15:16:57.921Z,-3.57
2022-12-25T15:19:36.604Z,-3.83
2022-12-25T15:22:05.179Z,-3.81
2022-12-25T15:24:32.425Z,-3.71
2022-12-25T15:27:00.944Z,-3.50
2022-12-25T15:32:19.784Z,-3.34
2022-12-25T15:34:49.992Z,-3.51
2022-12-25T15:37:20.979Z,-3.42
2022-12-25T15:39:48.487Z,-3.56
2022-12-25T15:42:23.241Z,-3.39
2022-12-25T15:44:51.946Z,-3.28
2022-12-25T15:47:20.724Z,-3.11
2022-12-25T15:49:48.436Z,-3.20
2022-12-25T15:52:17.970Z,-3.47
2022-12-25T15:54:46.306Z,-3.62
2022-12-25T15:57:22.638Z,-3.67
2022-12-25T16:00:08.250Z,-3.65
2022-12-25T16:05:10.459Z,-3.55
2022-12-25T16:07:38.556Z,-3.75
2022-12-25T16:10:12.532Z,-3.60
2022-12-25T16:12:40.189Z,-3.65
2022-12-25T16:15:08.200Z,-3.77
2022-12-25T16:18:01.360Z,-3.40
2022-12-25T16:20:29.757Z,-3.44
2022-12-25T16:22:57.909Z,-3.52
2022-12-25T16:25:25.263Z,-3.72
2022-12-25T16:27:52.671Z,-3.39
2022-12-25T16:30:20.593Z,-3.37
2022-12-25T16:32:50.507Z,-3.41
2022-12-25T16:35:18.369Z,-3.16
2022-12-25T16:37:46.126Z,-3.08
2022-12-25T16:40:13.749Z,-3.13
2022-12-25T16:42:41.334Z,-3.56
2022-12-25T16:45:09.114Z,-3.51
2022-12-25T16:47:37.063Z,-3.35
2022-12-25T16:50:06.250Z,-3.36
2022-12-25T16:52:35.500Z,-3.06
2022-12-25T16:55:07.068Z,-3.15
2022-12-25T16:57:34.622Z,-3.55
2022-12-25T17:00:02.764Z,-3.89
2022-12-25T17:02:31.000Z,-4.13
2022-12-25T17:04:59.892Z,-4.11
2022-12-25T17:07:28.310Z,-3.76
2022-12-25T17:09:57.692Z,-3.90
2022-12-25T17:12:25.304Z,-4.10
2022-12-25T17:14:52.854Z,-4.08
2022-12-25T17:17:20.968Z,-3.84
2022-12-25T17:19:48.908Z,-3.89
2022-12-25T17:25:00.492Z,-4.20
2022-12-25T17:27:28.495Z,-4.04
2022-12-25T17:29:56.059Z,-3.99
2022-12-25T17:32:23.782Z,-3.60
2022-12-25T17:34:51.260Z,-3.42
2022-12-25T17:37:19.134Z,-3.53
2022-12-25T17:39:47.894Z,-3.51
2022-12-25T17:42:15.459Z,-3.74
2022-12-25T17:44:43.161Z,-3.45
2022-12-25T17:47:10.811Z,-3.25
2022-12-25T17:49:38.611Z,-3.50
2022-12-25T17:52:06.387Z,-3.63
2022-12-25T17:54:34.229Z,-3.73
2022-12-25T17:57:02.875Z,-3.78
2022-12-25T17:59:31.101Z,-3.96
2022-12-25T18:01:59.434Z,-3.84
2022-12-25T18:04:27.096Z,-4.04
2022-12-25T18:06:54.782Z,-4.04
2022-12-25T18:10:22.013Z,-4.17
2022-12-25T18:12:50.106Z,-3.91
2022-12-25T18:15:18.908Z,-3.97
2022-12-25T18:17:46.866Z,-4.00
2022-12-25T18:22:52.557Z,-4.22
2022-12-25T18:25:20.229Z,-4.24
2022-12-25T18:27:47.695Z,-4.09
2022-12-25T18:30:19.530Z,-4.03
2022-12-25T18:32:53.253Z,-3.98
2022-12-25T18:35:32.223Z,-4.09
2022-12-25T18:38:03.093Z,-4.44
2022-12-25T18:40:33.081Z,-4.20
2022-12-25T18:43:05.827Z,-3.91
2022-12-25T18:45:36.190Z,-3.99
2022-12-25T18:48:07.786Z,-3.85
2022-12-25T18:50:44.591Z,-3.84
2022-12-25T18:53:14.911Z,-3.78
2022-12-25T18:55:48.422Z,-3.68
2022-12-25T18:58:21.509Z,-3.98
2022-12-25T19:00:53.416Z,-4.26
2022-12-25T19:03:25.374Z,-4.25
2022-12-25T19:05:58.649Z,-4.44
2022-12-25T19:08:30.049Z,-4.06
2022-12-25T19:11:01.160Z,-3.87
2022-12-25T19:13:31.546Z,-4.16
2022-12-25T19:16:01.667Z,-3.82
2022-12-25T19:18:32.578Z,-3.71
2022-12-25T19:21:10.331Z,-3.75
2022-12-25T19:23:40.734Z,-3.61
2022-12-25T19:26:12.165Z,-3.82
2022-12-25T19:28:43.842Z,-3.87
2022-12-25T19:31:14.900Z,-3.63
2022-12-25T19:33:44.483Z,-3.44
2022-12-25T19:36:19.323Z,-3.26
2022-12-25T19:38:52.238Z,-3.16
2022-12-25T19:41:26.396Z,-3.02
2022-12-25T19:43:55.989Z,-3.22
2022-12-25T19:46:36.034Z,-3.62
2022-12-25T19:49:06.441Z,-3.70
2022-12-25T19:51:46.360Z,-3.69
2022-12-25T19:54:19.036Z,-3.84
2022-12-25T19:56:47.618Z,-4.07
2022-12-25T19:59:15.637Z,-3.94
2022-12-25T20:01:43.380Z,-3.68
2022-12-25T20:04:11.639Z,-3.87
2022-12-25T20:06:45.949Z,-4.22
2022-12-25T20:09:21.329Z,-4.30
2022-12-25T20:11:50.248Z,-4.32
2022-12-25T20:14:18.128Z,-4.03
2022-12-25T20:16:46.113Z,-3.93
2022-12-25T20:19:13.764Z,-3.89
2022-12-25T20:21:41.783Z,-4.09
2022-12-25T20:24:12.263Z,-4.10
2022-12-25T20:26:40.197Z,-4.43
2022-12-25T20:29:07.779Z,-4.38
2022-12-25T20:31:35.965Z,-4.27
2022-12-25T20:34:09.669Z,-4.32
2022-12-25T20:36:38.087Z,-4.27
2022-12-25T20:39:10.227Z,-4.50
2022-12-25T20:41:38.952Z,-4.26
2022-12-25T20:44:09.587Z,-4.12
2022-12-25T20:46:37.670Z,-4.18
2022-12-25T20:49:05.857Z,-4.15
2022-12-25T20:51:33.389Z,-3.99
2022-12-25T20:54:01.358Z,-4.09
2022-12-25T20:56:30.367Z,-4.29
2022-12-25T20:59:03.599Z,-4.07
2022-12-25T21:01:32.212Z,-4.21
2022-12-25T21:04:00.355Z,-4.17
2022-12-25T21:06:30.310Z,-4.31
2022-12-25T21:08:57.858Z,-4.32
2022-12-25T21:11:25.612Z,-4.35
2022-12-25T21:13:53.359Z,-4.27
2022-12-25T21:16:22.861Z,-4.51
2022-12-25T21:18:52.593Z,-4.65
2022-12-25T21:21:21.324Z,-4.54
2022-12-25T21:23:48.650Z,-4.42
2022-12-25T21:26:20.174Z,-4.40
2022-12-25T21:28:53.065Z,-4.49
2022-12-25T21:31:22.005Z,-4.56
2022-12-25T21:33:52.301Z,-4.73
2022-12-25T21:36:28.034Z,-4.29
2022-12-25T21:41:39.696Z,-3.98
2022-12-25T21:44:09.388Z,-3.72
2022-12-25T21:46:37.192Z,-3.72
2022-12-25T21:49:04.496Z,-3.76
2022-12-25T21:51:52.831Z,-3.68
2022-12-25T21:54:22.301Z,-3.43
2022-12-25T21:56:49.973Z,-3.49
2022-12-25T21:59:22.166Z,-3.40
2022-12-25T22:01:51.350Z,-3.32
2022-12-25T22:04:21.051Z,-3.42
2022-12-25T22:07:07.625Z,-3.42
2022-12-25T22:09:35.075Z,-3.69
2022-12-25T22:12:21.658Z,-3.52
2022-12-25T22:14:59.194Z,-3.46
2022-12-25T22:17:48.449Z,-3.52
2022-12-25T22:20:24.637Z,-3.67
2022-12-25T22:23:52.357Z,-3.75
2022-12-25T22:26:21.120Z,-3.96
2022-12-25T22:28:48.574Z,-3.96
2022-12-25T22:31:15.865Z,-4.09
2022-12-25T22:33:43.106Z,-4.24
2022-12-25T22:36:10.800Z,-4.30
2022-12-25T22:38:38.173Z,-4.20
2022-12-25T22:41:09.045Z,-4.45
2022-12-25T22:44:14.562Z,-4.57
2022-12-25T22:46:23.742Z,-4.27
2022-12-25T22:49:06.507Z,-4.24
2022-12-25T22:51:33.702Z,-4.49
2022-12-25T22:54:03.725Z,-4.29
2022-12-25T22:56:31.458Z,-4.21
2022-12-25T22:58:59.099Z,-4.34
2022-12-25T23:01:26.701Z,-4.66
2022-12-25T23:03:54.966Z,-4.61
2022-12-25T23:06:22.576Z,-4.65
2022-12-25T23:08:49.965Z,-4.58
2022-12-25T23:11:20.301Z,-4.60
2022-12-25T23:14:06.431Z,-4.48
2022-12-25T23:16:33.963Z,-4.57
2022-12-25T23:19:19.725Z,-4.52
2022-12-25T23:22:05.431Z,-4.29
2022-12-25T23:24:51.078Z,-3.93
2022-12-25T23:27:18.347Z,-4.02
2022-12-25T23:29:45.483Z,-4.22
2022-12-25T23:32:16.282Z,-4.35
2022-12-25T23:34:45.310Z,-4.40
2022-12-25T23:37:12.731Z,-4.25
2022-12-25T23:39:40.124Z,-4.37
2022-12-25T23:42:07.275Z,-4.32
2022-12-25T23:44:34.865Z,-4.30
2022-12-25T23:47:02.167Z,-4.32
2022-12-25T23:49:30.001Z,-4.27
2022-12-25T23:51:58.004Z,-4.19
2022-12-25T23:54:28.130Z,-4.13
2022-12-25T23:56:57.859Z,-4.11
2022-12-25T23:59:30.402Z,-3.99
